Terminal Aerodrome Forecast
Issued by NWS

Home | Current Version | Previous Version | Text Only | Print | Product List | Glossary On
Versions: 1 2 3 4 5 6 7 8 9 10 11 12 13 14 15 16 17 18 19 20 21
000
FTUS44 KHGX 221729
TAFUTS
TAF
KUTS 221729Z 2218/2318 16007KT P6SM BKN035
     FM230200 11004KT P6SM SCT250
     FM231100 VRB03KT 4SM BR SCT002 BKN015
     FM231400 13007KT P6SM SCT015=

USA.gov is the U.S. government's official web portal to all federal, state and local government web resources and services.